Terminal Aerodrome Forecast
Issued by NWS

Home | Current Version | Previous Version | Text Only | Print | Product List | Glossary Off
Versions: 1 2 3 4 5 6 7 8 9 10 11 12 13 14

000
FTUS43 KABR 291000 AAA
TAFATY
TAF AMD
KATY 291041Z 2911/3006 VRB03KT 3SM BR SCT002
      TEMPO 2911/2913 1SM BR BKN002
     FM291400 33004KT P6SM FEW050
     FM300100 VRB02KT P6SM SKC=

USA.gov is the U.S. government's official web portal to all federal, state and local government web resources and services.